createdAt,value
2019-02-20T00:00:41.664Z,29.40
2019-02-20T00:03:11.099Z,21.90
2019-02-20T00:05:40.581Z,28.83
2019-02-20T00:08:10.012Z,37.47
2019-02-20T00:10:39.572Z,32.60
2019-02-20T00:13:08.935Z,30.83
2019-02-20T00:15:38.342Z,33.50
2019-02-20T00:18:07.708Z,38.87
2019-02-20T00:20:37.130Z,27.57
2019-02-20T00:23:06.500Z,27.60
2019-02-20T00:25:35.960Z,32.93
2019-02-20T00:28:05.323Z,42.00
2019-02-20T00:30:34.727Z,35.00
2019-02-20T00:33:04.237Z,37.10
2019-02-20T00:35:33.635Z,38.20
2019-02-20T00:38:04.709Z,34.10
2019-02-20T00:40:34.170Z,43.20
2019-02-20T00:43:03.540Z,36.97
2019-02-20T00:45:43.654Z,33.17
2019-02-20T00:48:20.754Z,33.93
2019-02-20T00:50:51.799Z,36.37
2019-02-20T00:53:26.003Z,38.43
2019-02-20T00:55:55.412Z,35.57
2019-02-20T00:58:24.844Z,42.30
2019-02-20T01:00:54.317Z,42.87
2019-02-20T01:03:23.675Z,35.23
2019-02-20T01:05:53.167Z,35.43
2019-02-20T01:08:22.535Z,35.87
2019-02-20T01:10:53.515Z,37.27
2019-02-20T01:13:23.023Z,38.37
2019-02-20T01:15:52.755Z,44.03
2019-02-20T01:18:22.182Z,38.00
2019-02-20T01:20:51.942Z,38.93
2019-02-20T01:23:21.309Z,44.40
2019-02-20T01:25:52.365Z,46.00
2019-02-20T01:28:23.379Z,43.67
2019-02-20T01:30:52.873Z,45.63
2019-02-20T01:33:22.397Z,40.17
2019-02-20T01:35:51.857Z,46.23
2019-02-20T01:38:21.365Z,45.37
2019-02-20T01:40:50.841Z,47.23
2019-02-20T01:43:20.344Z,42.50
2019-02-20T01:45:49.795Z,44.30
2019-02-20T01:48:19.244Z,46.63
2019-02-20T01:50:48.652Z,45.03
2019-02-20T01:53:18.100Z,42.50
2019-02-20T01:55:47.582Z,44.87
2019-02-20T01:58:17.019Z,51.27
2019-02-20T02:00:46.546Z,42.53
2019-02-20T02:03:15.917Z,41.37
2019-02-20T02:05:45.455Z,46.27
2019-02-20T02:08:15.651Z,47.67
2019-02-20T02:10:45.105Z,40.47
2019-02-20T02:13:14.534Z,50.97
2019-02-20T02:15:43.919Z,53.57
2019-02-20T02:18:13.395Z,50.37
2019-02-20T02:20:42.856Z,60.10
2019-02-20T02:23:19.665Z,52.30
2019-02-20T02:25:43.515Z,54.97
2019-02-20T02:28:13.071Z,54.77
2019-02-20T02:30:42.557Z,61.87
2019-02-20T02:33:12.036Z,51.67
2019-02-20T02:35:41.502Z,55.03
2019-02-20T02:38:11.037Z,54.40
2019-02-20T02:40:40.580Z,55.90
2019-02-20T02:43:10.042Z,55.47
2019-02-20T02:45:39.439Z,50.10
2019-02-20T02:48:08.839Z,58.40
2019-02-20T02:50:38.320Z,58.00
2019-02-20T02:53:07.791Z,54.40
2019-02-20T02:55:37.258Z,56.80
2019-02-20T02:58:06.867Z,65.60
2019-02-20T03:00:36.337Z,71.87
2019-02-20T03:03:05.807Z,57.80
2019-02-20T03:05:35.217Z,60.87
2019-02-20T03:08:04.703Z,64.97
2019-02-20T03:10:34.184Z,64.40
2019-02-20T03:13:03.596Z,60.83
2019-02-20T03:15:32.958Z,57.30
2019-02-20T03:18:02.377Z,60.40
2019-02-20T03:20:31.810Z,65.30
2019-02-20T03:23:01.214Z,66.40
2019-02-20T03:25:30.651Z,66.30
2019-02-20T03:28:00.187Z,64.80
2019-02-20T03:30:29.567Z,61.47
2019-02-20T03:32:59.028Z,62.60
2019-02-20T03:35:28.392Z,68.40
2019-02-20T03:37:57.793Z,58.87
2019-02-20T03:40:27.251Z,56.80
2019-02-20T03:42:56.828Z,61.80
2019-02-20T03:45:26.289Z,62.47
2019-02-20T03:47:55.764Z,56.47
2019-02-20T03:50:25.320Z,61.77
2019-02-20T03:52:54.792Z,60.43
2019-02-20T03:55:25.745Z,50.20
2019-02-20T03:57:55.292Z,60.93
2019-02-20T04:00:24.846Z,58.50
2019-02-20T04:02:54.251Z,59.87
2019-02-20T04:05:23.724Z,64.37
2019-02-20T04:07:53.192Z,59.80
2019-02-20T04:10:22.596Z,57.53
2019-02-20T04:12:52.024Z,55.13
2019-02-20T04:15:21.662Z,56.87
2019-02-20T04:17:51.022Z,58.40
2019-02-20T04:20:20.425Z,52.60
2019-02-20T04:22:49.956Z,59.33
2019-02-20T04:25:19.499Z,57.53
2019-02-20T04:27:48.956Z,53.27
2019-02-20T04:30:18.362Z,57.40
2019-02-20T04:32:47.799Z,61.73
2019-02-20T04:35:17.337Z,48.50
2019-02-20T04:37:46.737Z,57.63
2019-02-20T04:40:16.176Z,54.70
2019-02-20T04:42:45.634Z,48.53
2019-02-20T04:45:15.238Z,65.90
2019-02-20T04:47:44.714Z,49.03
2019-02-20T04:50:14.210Z,52.50
2019-02-20T04:52:43.834Z,49.07
2019-02-20T04:55:13.353Z,48.17
2019-02-20T04:57:42.815Z,56.63
2019-02-20T05:00:13.922Z,60.37
2019-02-20T05:02:43.568Z,60.87
2019-02-20T05:05:13.074Z,62.87
2019-02-20T05:07:43.122Z,49.07
2019-02-20T05:10:12.640Z,62.27
2019-02-20T05:12:42.135Z,50.20
2019-02-20T05:15:11.652Z,55.77
2019-02-20T05:17:41.071Z,52.00
2019-02-20T05:20:10.522Z,54.00
2019-02-20T05:22:39.987Z,47.50
2019-02-20T05:25:10.069Z,56.80
2019-02-20T05:27:39.613Z,54.70
2019-02-20T05:30:09.457Z,57.47
2019-02-20T05:32:39.667Z,60.80
2019-02-20T05:35:09.094Z,45.97
2019-02-20T05:37:39.689Z,58.93
2019-02-20T05:40:10.721Z,55.97
2019-02-20T05:42:40.337Z,51.27
2019-02-20T05:45:09.917Z,53.60
2019-02-20T05:47:39.463Z,57.43
2019-02-20T05:50:08.981Z,52.63
2019-02-20T05:52:38.424Z,51.17
2019-02-20T05:55:09.976Z,53.67
2019-02-20T05:57:40.223Z,55.07
2019-02-20T06:00:14.121Z,48.03
2019-02-20T06:02:43.518Z,52.30
2019-02-20T06:05:13.093Z,56.33
2019-02-20T06:07:42.455Z,49.20
2019-02-20T06:10:12.059Z,53.93
2019-02-20T06:12:41.424Z,49.40
2019-02-20T06:15:11.344Z,49.67
2019-02-20T06:17:40.839Z,50.60
2019-02-20T06:20:11.473Z,54.93
2019-02-20T06:22:41.197Z,53.77
2019-02-20T06:25:10.738Z,47.13
2019-02-20T06:27:40.192Z,58.80
2019-02-20T06:30:12.119Z,49.70
2019-02-20T06:32:41.491Z,49.57
2019-02-20T06:35:11.123Z,55.60
2019-02-20T06:37:40.631Z,46.27
2019-02-20T06:40:10.931Z,47.23
2019-02-20T06:42:40.337Z,56.93
2019-02-20T06:45:11.068Z,50.43
2019-02-20T06:47:40.456Z,50.77
2019-02-20T06:50:10.389Z,58.53
2019-02-20T06:52:39.746Z,56.70
2019-02-20T06:55:11.796Z,52.37
2019-02-20T06:57:41.302Z,52.23
2019-02-20T07:00:13.410Z,57.93
2019-02-20T07:02:42.781Z,54.67
2019-02-20T07:05:32.816Z,50.33
2019-02-20T07:08:34.046Z,50.97
2019-02-20T07:11:24.844Z,41.87
2019-02-20T07:14:20.870Z,48.77
2019-02-20T07:17:02.317Z,48.73
2019-02-20T07:19:43.931Z,51.80
2019-02-20T07:22:32.008Z,54.30
2019-02-20T07:25:08.462Z,46.70
2019-02-20T07:27:57.072Z,49.00
2019-02-20T07:30:27.981Z,47.97
2019-02-20T07:32:57.445Z,52.30
2019-02-20T07:35:26.876Z,45.40
2019-02-20T07:37:56.273Z,50.47
2019-02-20T07:40:25.703Z,40.30
2019-02-20T07:42:55.405Z,42.97
2019-02-20T07:45:24.913Z,42.07
2019-02-20T07:47:54.375Z,45.20
2019-02-20T07:50:23.760Z,45.07
2019-02-20T07:52:53.182Z,41.90
2019-02-20T07:55:22.553Z,44.60
2019-02-20T07:57:52.026Z,41.87
2019-02-20T08:00:21.386Z,44.50
2019-02-20T08:02:50.792Z,40.40
2019-02-20T08:05:20.311Z,48.10
2019-02-20T08:07:49.850Z,40.27
2019-02-20T08:10:19.236Z,45.17
2019-02-20T08:12:48.635Z,38.67
2019-02-20T08:15:18.113Z,43.57
2019-02-20T08:17:47.664Z,41.80
2019-02-20T08:20:17.100Z,40.93
2019-02-20T08:22:46.576Z,37.50
2019-02-20T08:25:22.528Z,44.10
2019-02-20T08:27:47.513Z,38.90
2019-02-20T08:30:16.945Z,46.17
2019-02-20T08:32:46.355Z,40.60
2019-02-20T08:35:15.795Z,41.43
2019-02-20T08:37:45.374Z,43.73
2019-02-20T08:40:15.557Z,54.67
2019-02-20T08:42:44.952Z,42.10
2019-02-20T08:45:14.546Z,47.53
2019-02-20T08:47:44.978Z,47.87
2019-02-20T08:50:14.491Z,47.23
2019-02-20T08:52:43.964Z,49.43
2019-02-20T08:55:13.470Z,40.80
2019-02-20T08:57:43.042Z,45.47
2019-02-20T09:00:15.624Z,44.40
2019-02-20T09:02:45.176Z,40.40
2019-02-20T09:05:14.761Z,48.40
2019-02-20T09:07:44.503Z,39.50
2019-02-20T09:10:14.410Z,37.90
2019-02-20T09:12:43.877Z,41.73
2019-02-20T09:15:14.009Z,43.10
2019-02-20T09:17:45.070Z,36.43
2019-02-20T09:20:14.502Z,39.30
2019-02-20T09:22:43.909Z,37.87
2019-02-20T09:25:19.449Z,37.40
2019-02-20T09:27:46.041Z,43.83
2019-02-20T09:30:16.191Z,36.63
2019-02-20T09:32:45.576Z,39.67
2019-02-20T09:35:15.180Z,38.53
2019-02-20T09:37:45.087Z,33.93
2019-02-20T09:40:17.452Z,31.73
2019-02-20T09:42:51.585Z,36.97
2019-02-20T09:45:21.122Z,34.20
2019-02-20T09:47:50.589Z,30.53
2019-02-20T09:50:20.018Z,31.70
2019-02-20T09:52:52.365Z,28.83
2019-02-20T09:55:20.553Z,34.03
2019-02-20T09:57:49.967Z,33.53
2019-02-20T10:00:19.911Z,31.20
2019-02-20T10:02:51.124Z,27.80
2019-02-20T10:05:20.652Z,30.27
2019-02-20T10:07:50.055Z,31.10
2019-02-20T10:10:19.488Z,29.60
2019-02-20T10:12:48.955Z,32.80
2019-02-20T10:15:19.268Z,28.57
2019-02-20T10:17:48.723Z,26.23
2019-02-20T10:20:18.287Z,31.87
2019-02-20T10:22:47.838Z,29.37
2019-02-20T10:25:19.023Z,23.90
2019-02-20T10:27:48.406Z,27.60
2019-02-20T10:30:18.918Z,30.53
2019-02-20T10:32:48.457Z,30.90
2019-02-20T10:35:17.847Z,25.87
2019-02-20T10:37:47.220Z,25.97
2019-02-20T10:40:16.779Z,27.97
2019-02-20T10:42:46.211Z,26.50
2019-02-20T10:45:15.684Z,25.80
2019-02-20T10:47:45.272Z,19.77
2019-02-20T10:50:15.318Z,25.37
2019-02-20T10:52:44.775Z,25.10
2019-02-20T10:55:14.355Z,27.23
2019-02-20T10:57:43.715Z,21.87
2019-02-20T11:00:23.889Z,26.63
2019-02-20T11:02:48.352Z,24.97
2019-02-20T11:05:17.946Z,21.63
2019-02-20T11:07:47.424Z,20.90
2019-02-20T11:10:16.928Z,23.87
2019-02-20T11:12:46.316Z,22.30
2019-02-20T11:15:16.389Z,20.83
2019-02-20T11:17:45.884Z,19.50
2019-02-20T11:20:15.364Z,21.87
2019-02-20T11:22:44.868Z,21.00
2019-02-20T11:25:14.607Z,18.57
2019-02-20T11:27:44.987Z,21.40
2019-02-20T11:30:17.494Z,23.13
2019-02-20T11:32:46.978Z,18.77
2019-02-20T11:35:16.740Z,21.00
2019-02-20T11:37:46.233Z,19.20
2019-02-20T11:40:15.643Z,16.37
2019-02-20T11:42:45.137Z,15.63
2019-02-20T11:45:17.820Z,16.97
2019-02-20T11:47:47.250Z,19.00
2019-02-20T11:50:16.744Z,17.83
2019-02-20T11:52:47.691Z,23.23
2019-02-20T11:55:17.223Z,20.97
2019-02-20T11:57:46.608Z,20.37
2019-02-20T12:00:17.632Z,18.43
2019-02-20T12:02:47.117Z,15.20
2019-02-20T12:05:16.828Z,15.10
2019-02-20T12:07:46.296Z,14.87
2019-02-20T12:10:17.408Z,16.27
2019-02-20T12:12:47.051Z,17.70
2019-02-20T12:15:16.707Z,14.33
2019-02-20T12:17:46.344Z,15.30
2019-02-20T12:20:15.855Z,14.40
2019-02-20T12:22:45.323Z,21.07
2019-02-20T12:25:14.797Z,14.43
2019-02-20T12:27:44.272Z,17.17
2019-02-20T12:30:14.016Z,14.10
2019-02-20T12:32:43.492Z,14.33
2019-02-20T12:35:13.100Z,13.63
2019-02-20T12:37:42.459Z,15.87
2019-02-20T12:40:12.015Z,14.50
2019-02-20T12:42:42.037Z,13.60
2019-02-20T12:45:12.251Z,17.73
2019-02-20T12:47:42.126Z,12.23
2019-02-20T12:50:15.407Z,15.57
2019-02-20T12:52:44.869Z,12.40
2019-02-20T12:55:14.361Z,16.57
2019-02-20T12:57:44.024Z,14.43
2019-02-20T13:00:18.459Z,13.93
2019-02-20T13:02:47.896Z,14.33
2019-02-20T13:05:17.535Z,16.63
2019-02-20T13:07:47.121Z,16.67
2019-02-20T13:10:16.662Z,15.60
2019-02-20T13:12:46.803Z,14.40
2019-02-20T13:15:16.463Z,16.73
2019-02-20T13:17:45.896Z,12.70
2019-02-20T13:20:15.362Z,13.53
2019-02-20T13:22:44.808Z,15.57
2019-02-20T13:25:14.314Z,16.13
2019-02-20T13:27:43.827Z,14.57
2019-02-20T13:30:14.947Z,17.13
2019-02-20T13:32:44.327Z,15.50
2019-02-20T13:35:13.864Z,15.67
2019-02-20T13:37:43.677Z,13.03
2019-02-20T13:40:13.213Z,13.27
2019-02-20T13:42:42.723Z,11.90
2019-02-20T13:45:12.360Z,12.60
2019-02-20T13:47:41.879Z,13.13
2019-02-20T13:50:12.400Z,16.93
2019-02-20T13:52:51.773Z,13.13
2019-02-20T13:55:14.149Z,13.93
2019-02-20T13:57:43.640Z,14.07
2019-02-20T14:00:14.687Z,11.40
2019-02-20T14:02:44.566Z,18.03
2019-02-20T14:05:14.006Z,15.33
2019-02-20T14:07:43.812Z,11.83
2019-02-20T14:10:13.487Z,11.87
2019-02-20T14:12:43.053Z,11.73
2019-02-20T14:15:14.475Z,10.73
2019-02-20T14:17:44.014Z,13.03
2019-02-20T14:20:13.664Z,10.63
2019-02-20T14:22:43.505Z,11.80
2019-02-20T14:25:13.216Z,12.47
2019-02-20T14:27:42.696Z,14.23
2019-02-20T14:30:12.735Z,11.70
2019-02-20T14:32:42.326Z,29.77
2019-02-20T14:35:15.051Z,13.87
2019-02-20T14:37:44.761Z,13.10
2019-02-20T14:40:14.374Z,13.27
2019-02-20T14:42:44.694Z,11.23
2019-02-20T14:45:17.849Z,12.27
2019-02-20T14:47:51.764Z,15.00
2019-02-20T14:50:21.518Z,13.60
2019-02-20T14:52:51.467Z,13.47
2019-02-20T14:55:20.932Z,12.40
2019-02-20T14:57:51.167Z,13.70
2019-02-20T15:00:20.948Z,10.10
2019-02-20T15:02:50.464Z,12.73
2019-02-20T15:05:20.244Z,13.77
2019-02-20T15:07:49.691Z,14.17
2019-02-20T15:10:19.167Z,11.67
2019-02-20T15:12:48.607Z,11.20
2019-02-20T15:15:19.028Z,15.60
2019-02-20T15:17:48.730Z,13.77
2019-02-20T15:20:18.585Z,13.10
2019-02-20T15:22:48.164Z,11.03
2019-02-20T15:25:17.639Z,17.30
2019-02-20T15:27:47.207Z,16.23
2019-02-20T15:30:20.009Z,11.27
2019-02-20T15:32:50.895Z,13.93
2019-02-20T15:35:20.544Z,16.40
2019-02-20T15:37:50.211Z,13.60
2019-02-20T15:40:19.832Z,15.43
2019-02-20T15:42:49.372Z,15.57
2019-02-20T15:45:18.982Z,16.13
2019-02-20T15:47:48.545Z,18.73
2019-02-20T15:50:18.312Z,17.00
2019-02-20T15:52:47.873Z,16.50
2019-02-20T15:55:17.495Z,13.80
2019-02-20T15:57:48.516Z,13.87
2019-02-20T16:00:22.647Z,17.67
2019-02-20T16:02:52.238Z,13.50
2019-02-20T16:05:21.818Z,12.10
2019-02-20T16:07:53.321Z,12.90
2019-02-20T16:10:22.508Z,15.53
2019-02-20T16:12:53.422Z,14.10
2019-02-20T16:15:24.238Z,12.43
2019-02-20T16:17:55.689Z,16.67
2019-02-20T16:20:25.190Z,14.40
2019-02-20T16:22:54.736Z,15.47
2019-02-20T16:25:24.172Z,12.73
2019-02-20T16:27:53.640Z,14.00
2019-02-20T16:30:23.142Z,15.50
2019-02-20T16:32:54.411Z,17.13
2019-02-20T16:35:23.938Z,15.23
2019-02-20T16:37:53.410Z,16.17
2019-02-20T16:40:22.846Z,13.23
2019-02-20T16:42:52.373Z,15.67
2019-02-20T16:45:25.436Z,17.77
2019-02-20T16:47:55.384Z,12.70
2019-02-20T16:50:24.831Z,16.07
2019-02-20T16:52:54.436Z,13.97
2019-02-20T16:55:23.873Z,14.13
2019-02-20T16:57:57.024Z,15.20
2019-02-20T17:00:28.975Z,16.10
2019-02-20T17:02:59.221Z,12.47
2019-02-20T17:05:28.759Z,14.67
2019-02-20T17:07:58.363Z,15.17
2019-02-20T17:10:27.869Z,12.93
2019-02-20T17:12:57.398Z,13.17
2019-02-20T17:15:26.907Z,14.00
2019-02-20T17:17:56.395Z,16.13
2019-02-20T17:20:25.897Z,12.37
2019-02-20T17:22:55.732Z,13.73
2019-02-20T17:25:25.507Z,12.43
2019-02-20T17:27:55.022Z,14.60
2019-02-20T17:30:24.524Z,14.73
2019-02-20T17:32:54.050Z,14.20
2019-02-20T17:35:23.559Z,10.60
2019-02-20T17:37:53.402Z,13.57
2019-02-20T17:40:22.897Z,16.20
2019-02-20T17:42:52.506Z,11.83
2019-02-20T17:45:22.079Z,11.67
2019-02-20T17:47:51.682Z,12.90
2019-02-20T17:50:27.937Z,12.73
2019-02-20T17:52:57.494Z,10.83
2019-02-20T17:55:27.013Z,11.80
2019-02-20T17:57:56.491Z,10.60
2019-02-20T18:00:30.536Z,12.80
2019-02-20T18:02:59.983Z,12.07
2019-02-20T18:05:29.744Z,11.23
2019-02-20T18:08:18.487Z,11.30
2019-02-20T18:10:47.959Z,11.07
2019-02-20T18:13:17.501Z,14.33
2019-02-20T18:15:47.016Z,13.07
2019-02-20T18:18:16.563Z,10.60
2019-02-20T18:20:45.965Z,13.50
2019-02-20T18:23:15.471Z,10.60
2019-02-20T18:25:44.864Z,11.67
2019-02-20T18:28:14.263Z,8.37
2019-02-20T18:30:43.707Z,10.73
2019-02-20T18:33:13.165Z,9.63
2019-02-20T18:35:42.655Z,7.70
2019-02-20T18:38:12.124Z,13.00
2019-02-20T18:40:41.830Z,9.70
2019-02-20T18:43:14.218Z,10.90
2019-02-20T18:45:43.743Z,9.67
2019-02-20T18:48:13.336Z,10.47
2019-02-20T18:50:42.881Z,10.83
2019-02-20T18:53:12.806Z,10.27
2019-02-20T18:55:42.295Z,8.40
2019-02-20T18:58:11.904Z,12.83
2019-02-20T19:00:43.001Z,9.00
2019-02-20T19:03:12.599Z,11.33
2019-02-20T19:05:43.678Z,8.47
2019-02-20T19:08:38.440Z,11.57
2019-02-20T19:11:10.978Z,8.00
2019-02-20T19:13:49.186Z,8.23
2019-02-20T19:16:52.029Z,6.57
2019-02-20T19:19:33.370Z,8.33
2019-02-20T19:22:33.155Z,8.63
2019-02-20T19:25:30.550Z,5.87
2019-02-20T19:28:03.106Z,7.13
2019-02-20T19:30:41.403Z,8.73
2019-02-20T19:33:39.941Z,8.73
2019-02-20T19:36:30.591Z,8.77
2019-02-20T19:39:26.992Z,4.93
2019-02-20T19:42:20.689Z,6.77
2019-02-20T19:44:58.997Z,9.87
2019-02-20T19:47:31.494Z,6.60
2019-02-20T19:50:11.724Z,7.33
2019-02-20T19:52:56.482Z,8.73
2019-02-20T19:55:46.832Z,7.47
2019-02-20T19:58:33.929Z,7.50
2019-02-20T20:01:30.873Z,7.93
2019-02-20T20:04:21.539Z,5.87
2019-02-20T20:07:06.023Z,7.13
2019-02-20T20:09:38.889Z,9.50
2019-02-20T20:12:35.907Z,5.50
2019-02-20T20:15:23.651Z,8.93
2019-02-20T20:18:26.360Z,8.93
2019-02-20T20:21:07.835Z,8.80
2019-02-20T20:24:15.529Z,9.77
2019-02-20T20:27:00.731Z,7.13
2019-02-20T20:29:33.273Z,7.53
2019-02-20T20:32:21.331Z,11.60
2019-02-20T20:34:56.470Z,7.87
2019-02-20T20:37:45.961Z,8.73
2019-02-20T20:40:23.529Z,7.70
2019-02-20T20:43:14.291Z,8.97
2019-02-20T20:45:49.391Z,11.33
2019-02-20T20:48:30.766Z,7.97
2019-02-20T20:51:14.537Z,8.63
2019-02-20T20:53:47.106Z,8.73
2019-02-20T20:56:25.382Z,8.33
2019-02-20T20:59:18.063Z,6.60
2019-02-20T21:01:50.762Z,9.17
2019-02-20T21:04:26.012Z,8.33
2019-02-20T21:07:18.055Z,11.40
2019-02-20T21:09:56.577Z,10.53
2019-02-20T21:12:37.999Z,14.57
2019-02-20T21:15:39.472Z,10.63
2019-02-20T21:18:18.243Z,11.53
2019-02-20T21:21:06.779Z,10.60
2019-02-20T21:24:01.975Z,11.20
2019-02-20T21:26:49.932Z,11.77
2019-02-20T21:29:57.389Z,10.07
2019-02-20T21:32:44.596Z,11.87
2019-02-20T21:35:27.837Z,10.07
2019-02-20T21:38:21.452Z,9.40
2019-02-20T21:40:59.805Z,11.57
2019-02-20T21:43:47.234Z,10.17
2019-02-20T21:46:47.077Z,10.90
2019-02-20T21:49:37.500Z,10.77
2019-02-20T21:52:27.129Z,11.63
2019-02-20T21:55:16.600Z,7.80
2019-02-20T21:58:05.352Z,11.23
2019-02-20T22:00:40.845Z,11.63
2019-02-20T22:03:16.088Z,9.53
2019-02-20T22:05:48.557Z,11.07
2019-02-20T22:08:37.384Z,10.30
2019-02-20T22:11:12.540Z,10.07
2019-02-20T22:14:00.486Z,14.23
2019-02-20T22:16:52.706Z,10.57
2019-02-20T22:19:46.529Z,14.67
2019-02-20T22:22:25.030Z,12.70
2019-02-20T22:25:13.924Z,11.03
2019-02-20T22:28:04.650Z,10.87
2019-02-20T22:30:39.716Z,10.90
2019-02-20T22:33:15.180Z,13.97
2019-02-20T22:36:07.404Z,11.50
2019-02-20T22:38:58.548Z,14.93
2019-02-20T22:41:43.231Z,16.40
2019-02-20T22:44:33.101Z,14.47
2019-02-20T22:47:17.897Z,15.40
2019-02-20T22:50:04.163Z,16.10
2019-02-20T22:52:42.222Z,16.97
2019-02-20T22:55:26.980Z,18.93
2019-02-20T22:58:09.824Z,18.43
2019-02-20T23:01:03.677Z,16.17
2019-02-20T23:03:54.538Z,17.60
2019-02-20T23:06:38.992Z,20.53
2019-02-20T23:09:19.988Z,22.93
2019-02-20T23:12:01.243Z,23.43
2019-02-20T23:14:39.998Z,20.57
2019-02-20T23:17:09.528Z,26.70
2019-02-20T23:19:39.041Z,23.37
2019-02-20T23:22:08.788Z,24.90
2019-02-20T23:24:38.377Z,22.73
2019-02-20T23:27:07.853Z,22.63
2019-02-20T23:29:37.301Z,25.50
2019-02-20T23:32:06.805Z,23.70
2019-02-20T23:34:36.267Z,24.37
2019-02-20T23:37:05.857Z,21.70
2019-02-20T23:39:35.371Z,25.00
2019-02-20T23:42:04.923Z,22.87
2019-02-20T23:44:34.652Z,23.33
2019-02-20T23:47:04.227Z,26.60
2019-02-20T23:49:33.680Z,25.47
2019-02-20T23:52:03.211Z,25.87
2019-02-20T23:54:32.612Z,26.50
2019-02-20T23:57:02.150Z,24.63
2019-02-20T23:59:31.612Z,25.47
